Bremen — C6JC3 — position and weather

sailwx.info

Track history (hours):
 
Tides and Currents Weather Stations Pressure Air Temp Water Temp Dewpoint Dewpoint Depression Visibility Wind Speed Wind Dir Waves Ship Positions

Bremen

Operator: Hapag-Lloyd Container Line

Last reported at 2019-Aug-03 03:55 UTC. Time now 2019-Aug-22 08:52 UTC.
Position N 66°01' W 053°44'.
Warning: this ship's position is 19 days out of date.

Length 111.5 m; beam 17 m; draft 4.8 m.

Type: Ship. MMSI: 308429000.

Date/timePositionNaut miles runAvg speedWind from/ knotsBaromVisibWave heightAir tempDewpointWater temp
2019-Aug-03 03:55N 66°01' W 053°44'4 9.1
2019-Aug-03 03:30N 66°01' W 053°35'1 0.0
2019-Aug-02 00:50N 66°01' W 053°34'410.4
2019-Aug-02 00:29N 66°01' W 053°42'710.9
2019-Aug-01 23:52N 66°06' W 053°55'1212.4
2019-Aug-01 22:54N 66°17' W 054°00'5 0.1
2019-Jul-30 21:00N 66°21' W 054°09'2916.0
2019-Jul-30 19:10N 65°53' W 053°45'215.5
2019-Jul-30 19:00N 65°51' W 053°43'815.2
2019-Jul-30 18:30N 65°44' W 053°37'815.1
2019-Jul-30 18:00N 65°37' W 053°32'815.0
2019-Jul-30 17:30N 65°30' W 053°23'611.6
2019-Jul-30 17:00N 65°29' W 053°09'612.0
2019-Jul-30 16:29N 65°32' W 052°56'7 1.4
2019-Jul-30 11:33N 65°37' W 052°45'110.2
2019-Jul-30 11:24N 65°36' W 052°48'4 9.0
2019-Jul-30 11:00N 65°33' W 052°52'5 9.6
2019-Jul-30 10:30N 65°31' W 053°02'5 9.7
2019-Jul-30 10:00N 65°28' W 053°12'5 9.4
2019-Jul-30 09:30N 65°25' W 053°19'5 9.8
2019-Jul-30 09:01N 65°20' W 053°17'510.4
2019-Jul-30 08:30N 65°15' W 053°14'510.4
2019-Jul-30 08:00N 65°10' W 053°10'510.4
2019-Jul-30 07:30N 65°05' W 053°05'510.0
2019-Jul-30 07:01N 65°00' W 053°03'510.0
2019-Jul-30 06:30N 64°55' W 053°02'510.2
2019-Jul-30 06:01N 64°50' W 052°60'510.2
2019-Jul-30 05:30N 64°45' W 052°57'510.3
2019-Jul-30 05:00N 64°40' W 052°55'510.1
2019-Jul-30 04:31N 64°35' W 052°52'510.1
2019-Jul-30 04:00N 64°30' W 052°49'510.1
2019-Jul-30 03:30N 64°25' W 052°46'510.1
2019-Jul-30 03:00N 64°20' W 052°43'510.4
2019-Jul-30 02:30N 64°15' W 052°41'510.4
2019-Jul-30 02:00N 64°10' W 052°38'714.7
2019-Jul-30 01:30N 64°03' W 052°34'815.0
2019-Jul-30 01:00N 63°56' W 052°27'815.3
2019-Jul-30 00:31N 63°50' W 052°19'815.3
2019-Jul-30 00:00N 63°43' W 052°10'815.2
2019-Jul-29 23:30N 63°36' W 052°01'815.3
2019-Jul-29 23:00N 63°30' W 051°53'715.0
2019-Jul-29 22:30N 63°23' W 051°44'1015.3
2019-Jul-29 21:49N 63°14' W 051°33'  
Track history (hours):
 
Tides and Currents Weather Stations Pressure Air Temp Water Temp Dewpoint Dewpoint Depression Visibility Wind Speed Wind Dir Waves Ship Positions

Bremen

Operator: Hapag-Lloyd Container Line

Last reported at 2019-Aug-03 03:55 UTC. Time now 2019-Aug-22 08:52 UTC.
Position N 66°01' W 053°44'.
Warning: this ship's position is 19 days out of date.

Length 111.5 m; beam 17 m; draft 4.8 m.

Type: Ship. MMSI: 308429000.

Date/timePositionNaut miles runAvg speedWind from/ knotsBaromVisibWave heightAir tempDewpointWater temp
2019-Aug-03 03:55N 66°01' W 053°44'4 9.1
2019-Aug-03 03:30N 66°01' W 053°35'1 0.0
2019-Aug-02 00:50N 66°01' W 053°34'410.4
2019-Aug-02 00:29N 66°01' W 053°42'710.9
2019-Aug-01 23:52N 66°06' W 053°55'1212.4
2019-Aug-01 22:54N 66°17' W 054°00'5 0.1
2019-Jul-30 21:00N 66°21' W 054°09'2916.0
2019-Jul-30 19:10N 65°53' W 053°45'215.5
2019-Jul-30 19:00N 65°51' W 053°43'815.2
2019-Jul-30 18:30N 65°44' W 053°37'815.1
2019-Jul-30 18:00N 65°37' W 053°32'815.0
2019-Jul-30 17:30N 65°30' W 053°23'611.6
2019-Jul-30 17:00N 65°29' W 053°09'612.0
2019-Jul-30 16:29N 65°32' W 052°56'7 1.4
2019-Jul-30 11:33N 65°37' W 052°45'110.2
2019-Jul-30 11:24N 65°36' W 052°48'4 9.0
2019-Jul-30 11:00N 65°33' W 052°52'5 9.6
2019-Jul-30 10:30N 65°31' W 053°02'5 9.7
2019-Jul-30 10:00N 65°28' W 053°12'5 9.4
2019-Jul-30 09:30N 65°25' W 053°19'5 9.8
2019-Jul-30 09:01N 65°20' W 053°17'510.4
2019-Jul-30 08:30N 65°15' W 053°14'510.4
2019-Jul-30 08:00N 65°10' W 053°10'510.4
2019-Jul-30 07:30N 65°05' W 053°05'510.0
2019-Jul-30 07:01N 65°00' W 053°03'510.0
2019-Jul-30 06:30N 64°55' W 053°02'510.2
2019-Jul-30 06:01N 64°50' W 052°60'510.2
2019-Jul-30 05:30N 64°45' W 052°57'510.3
2019-Jul-30 05:00N 64°40' W 052°55'510.1
2019-Jul-30 04:31N 64°35' W 052°52'510.1
2019-Jul-30 04:00N 64°30' W 052°49'510.1
2019-Jul-30 03:30N 64°25' W 052°46'510.1
2019-Jul-30 03:00N 64°20' W 052°43'510.4
2019-Jul-30 02:30N 64°15' W 052°41'510.4
2019-Jul-30 02:00N 64°10' W 052°38'714.7
2019-Jul-30 01:30N 64°03' W 052°34'815.0
2019-Jul-30 01:00N 63°56' W 052°27'815.3
2019-Jul-30 00:31N 63°50' W 052°19'815.3
2019-Jul-30 00:00N 63°43' W 052°10'815.2
2019-Jul-29 23:30N 63°36' W 052°01'815.3
2019-Jul-29 23:00N 63°30' W 051°53'715.0
2019-Jul-29 22:30N 63°23' W 051°44'1015.3
2019-Jul-29 21:49N 63°14' W 051°33'  

Dump ship's entire track history